Time;durP1;ratioP1;P1;durP2;ratioP2;P2;SDS_P1;SDS_P2;PMS_P1;PMS_P2;Temp;Humidity;BMP_temperature;BMP_pressure;BME280_temperature;BME280_humidity;BME280_pressure;Samples;Min_cycle;Max_cycle;Signal;HPM_P1;HPM_P2
2022/06/28 00:01:34;;;;;;;5.30;4.90;;;24.70;88.70;;;;;;5073267;28;20930;-46
2022/06/28 00:04:01;;;;;;;5.30;4.80;;;24.70;88.80;;;;;;5073136;28;20451;-46
2022/06/28 00:06:28;;;;;;;6.03;5.27;;;24.70;89.20;;;;;;5073030;28;20488;-46
2022/06/28 00:08:55;;;;;;;5.83;5.33;;;24.50;89.50;;;;;;5072462;28;20863;-46
2022/06/28 00:11:22;;;;;;;6.33;5.73;;;24.50;89.70;;;;;;5073026;28;20430;-45
2022/06/28 00:13:49;;;;;;;5.90;5.40;;;24.50;90.10;;;;;;5072732;28;20437;-46
2022/06/28 00:16:16;;;;;;;8.83;6.03;;;24.50;90.30;;;;;;5072741;28;20448;-47
2022/06/28 00:18:44;;;;;;;7.20;6.50;;;24.50;90.50;;;;;;5072091;28;20991;-46
2022/06/28 00:21:12;;;;;;;7.63;6.03;;;24.40;91.00;;;;;;5072590;28;20506;-46
2022/06/28 00:23:42;;;;;;;7.30;6.60;;;24.40;91.80;;;;;;5072782;28;20502;-45
2022/06/28 00:26:11;;;;;;;9.63;7.10;;;24.20;92.30;;;;;;5072939;28;20477;-46
2022/06/28 00:28:38;;;;;;;8.40;7.30;;;24.30;92.90;;;;;;5054511;28;20465;-45
2022/06/28 00:31:05;;;;;;;10.50;7.90;;;24.30;92.90;;;;;;5072565;28;20491;-45
2022/06/28 00:33:32;;;;;;;8.80;8.00;;;24.20;93.40;;;;;;5072424;28;20437;-46
2022/06/28 00:35:59;;;;;;;9.67;7.30;;;24.20;94.20;;;;;;5072342;28;20492;-45
2022/06/28 00:38:25;;;;;;;9.40;7.87;;;24.10;94.50;;;;;;5071829;28;20570;-46
2022/06/28 00:40:54;;;;;;;9.00;8.30;;;24.00;94.60;;;;;;5071985;28;20781;-46
2022/06/28 00:43:22;;;;;;;9.00;8.20;;;24.00;95.30;;;;;;5072188;28;20905;-46
2022/06/28 00:45:51;;;;;;;9.17;8.37;;;23.90;95.80;;;;;;5071933;28;20481;-46
2022/06/28 00:48:18;;;;;;;8.47;7.67;;;23.80;95.70;;;;;;5072168;28;20477;-45
2022/06/28 00:50:45;;;;;;;8.57;7.87;;;23.70;96.20;;;;;;5071611;28;20548;-47
2022/06/28 00:53:14;;;;;;;8.80;8.10;;;23.70;96.50;;;;;;5053872;28;20440;-47
2022/06/28 00:55:42;;;;;;;9.10;8.30;;;23.70;96.90;;;;;;5071840;28;20432;-46
2022/06/28 00:58:09;;;;;;;8.37;7.67;;;23.60;97.10;;;;;;5053428;28;20471;-46
2022/06/28 01:00:41;;;;;;;10.70;9.67;;;23.60;97.50;;;;;;5053099;28;20480;-47
2022/06/28 01:03:13;;;;;;;9.47;8.77;;;23.50;98.00;;;;;;5053465;28;20447;-45
2022/06/28 01:05:42;;;;;;;9.20;8.30;;;23.50;98.40;;;;;;5053679;28;21024;-47
2022/06/28 01:08:10;;;;;;;10.17;9.17;;;23.40;98.80;;;;;;5053409;28;21001;-47
2022/06/28 01:10:37;;;;;;;10.30;9.40;;;23.50;99.70;;;;;;5053005;28;20463;-47
2022/06/28 01:13:06;;;;;;;9.60;8.80;;;23.40;99.70;;;;;;5053574;28;20824;-46
2022/06/28 01:15:33;;;;;;;10.73;9.93;;;23.40;99.50;;;;;;5053383;28;20517;-47
2022/06/28 01:18:05;;;;;;;10.07;9.27;;;23.30;99.90;;;;;;5053448;28;20444;-45
2022/06/28 01:20:45;;;;;;;10.30;9.40;;;23.30;99.90;;;;;;5053014;28;20464;-45
2022/06/28 01:23:19;;;;;;;10.27;9.13;;;23.20;99.90;;;;;;5053227;28;20940;-45
2022/06/28 01:25:48;;;;;;;10.33;9.53;;;23.20;99.90;;;;;;5053219;28;20474;-46
2022/06/28 01:28:19;;;;;;;9.83;9.03;;;23.10;99.90;;;;;;5053248;28;20467;-44
2022/06/28 01:30:49;;;;;;;9.80;9.00;;;23.00;99.90;;;;;;5053075;28;20456;-44
2022/06/28 01:33:24;;;;;;;8.80;8.10;;;23.00;99.90;;;;;;5052989;28;20451;-45
2022/06/28 01:35:53;;;;;;;10.43;9.47;;;23.30;99.90;;;;;;5052925;28;20952;-46
2022/06/28 01:38:23;;;;;;;9.20;8.50;;;23.00;99.90;;;;;;5052685;28;20473;-46
2022/06/28 01:40:50;;;;;;;9.90;9.00;;;23.00;99.90;;;;;;5052659;28;20908;-46
2022/06/28 01:43:19;;;;;;;10.33;9.47;;;22.90;99.90;;;;;;5052877;28;20463;-47
2022/06/28 01:45:50;;;;;;;9.80;9.00;;;22.90;99.90;;;;;;5052569;28;20479;-45
2022/06/28 01:48:18;;;;;;;10.80;9.90;;;22.90;99.90;;;;;;5052439;28;20486;-46
2022/06/28 01:50:57;;;;;;;9.97;9.00;;;22.90;99.90;;;;;;5052684;28;20458;-48
2022/06/28 01:53:25;;;;;;;11.83;10.67;;;22.90;99.90;;;;;;5052587;28;20456;-47
2022/06/28 01:56:15;;;;;;;10.83;9.93;;;22.80;99.90;;;;;;5065186;28;20938;-48
2022/06/28 01:58:51;;;;;;;11.00;10.10;;;22.80;99.90;;;;;;5052170;28;20768;-47
2022/06/28 02:01:22;;;;;;;10.73;9.83;;;22.80;99.90;;;;;;5069212;28;20893;-46
2022/06/28 02:03:51;;;;;;;10.87;10.07;;;22.80;99.90;;;;;;5052439;28;20841;-46
2022/06/28 02:06:38;;;;;;;10.67;9.80;;;22.70;99.90;;;;;;5069932;28;20483;-45
2022/06/28 02:09:11;;;;;;;10.33;9.53;;;22.40;99.90;;;;;;5052072;28;20462;-47
2022/06/28 02:11:44;;;;;;;10.57;9.63;;;22.70;99.90;;;;;;5052436;28;20455;-47
2022/06/28 02:14:12;;;;;;;11.20;10.10;;;22.70;99.90;;;;;;5052193;28;20491;-47
2022/06/28 02:16:39;;;;;;;11.43;10.50;;;22.70;99.90;;;;;;5052348;28;20456;-47
2022/06/28 02:19:06;;;;;;;10.37;9.57;;;22.50;99.90;;;;;;5068262;28;20469;-47
2022/06/28 02:21:36;;;;;;;11.13;10.23;;;22.60;99.90;;;;;;5052090;28;20560;-46
2022/06/28 02:24:03;;;;;;;11.50;10.50;;;22.40;99.90;;;;;;5068835;28;20452;-46
2022/06/28 02:26:32;;;;;;;10.50;9.67;;;22.70;99.90;;;;;;5068558;28;20573;-46
2022/06/28 02:28:59;;;;;;;10.27;9.37;;;22.70;99.90;;;;;;5070235;28;20533;-45
2022/06/28 02:31:26;;;;;;;9.67;8.83;;;22.90;99.90;;;;;;5052515;28;20445;-46
2022/06/28 02:33:53;;;;;;;11.07;10.10;;;22.50;99.90;;;;;;5052226;28;20443;-44
2022/06/28 02:41:52;;;;;;;8.77;8.07;;;22.60;99.90;;;;;;5051160;28;20439;-46
2022/06/28 02:44:19;;;;;;;10.70;9.90;;;22.50;99.90;;;;;;5069684;28;20434;-45
2022/06/28 02:46:46;;;;;;;11.00;10.00;;;22.50;99.90;;;;;;5051811;28;21056;-47
2022/06/28 02:49:13;;;;;;;9.97;9.07;;;22.50;99.90;;;;;;5069399;28;20470;-48
2022/06/28 02:51:40;;;;;;;11.07;10.00;;;23.00;99.90;;;;;;5069998;28;20438;-46
2022/06/28 02:54:07;;;;;;;10.13;8.80;;;22.50;99.90;;;;;;5069956;28;20514;-47
2022/06/28 02:56:33;;;;;;;9.13;8.30;;;22.50;99.90;;;;;;5051778;28;20446;-46
2022/06/28 02:59:02;;;;;;;8.93;8.13;;;22.50;99.90;;;;;;5051687;28;20483;-46
2022/06/28 03:01:28;;;;;;;8.40;7.70;;;22.50;99.90;;;;;;5051942;28;20933;-46
2022/06/28 03:03:55;;;;;;;8.33;7.53;;;22.50;99.90;;;;;;5069997;28;20432;-47
2022/06/28 03:06:21;;;;;;;8.80;8.10;;;22.50;99.90;;;;;;5053077;28;20498;-47
2022/06/28 03:08:48;;;;;;;7.53;6.87;;;22.40;99.90;;;;;;5055191;28;20479;-46
2022/06/28 03:11:14;;;;;;;7.60;6.90;;;22.30;99.90;;;;;;5073772;28;20432;-47
2022/06/28 03:13:41;;;;;;;7.87;7.17;;;22.40;99.90;;;;;;5055670;28;20443;-47
2022/06/28 03:16:10;;;;;;;7.43;6.73;;;21.90;99.90;;;;;;5055545;28;20445;-46
2022/06/28 03:18:37;;;;;;;8.47;7.33;;;22.10;99.90;;;;;;5055148;28;20583;-47
2022/06/28 03:21:04;;;;;;;8.83;7.93;;;22.40;99.90;;;;;;5073453;28;20434;-46
2022/06/28 03:23:31;;;;;;;8.20;7.37;;;22.40;99.90;;;;;;5073843;28;20439;-45
2022/06/28 03:25:58;;;;;;;7.67;6.97;;;22.40;99.90;;;;;;5073251;28;20573;-46
2022/06/28 03:28:24;;;;;;;8.03;7.23;;;22.40;99.90;;;;;;5073419;28;20488;-46
2022/06/28 03:30:51;;;;;;;8.20;7.07;;;22.30;99.90;;;;;;5073635;28;20496;-46
2022/06/28 03:33:19;;;;;;;8.60;7.80;;;22.30;99.90;;;;;;5073919;28;20451;-46
2022/06/28 03:35:45;;;;;;;11.07;8.97;;;22.30;99.90;;;;;;5056612;28;20813;-47
2022/06/28 03:38:12;;;;;;;7.53;6.93;;;22.30;99.90;;;;;;5057868;28;21013;-46
2022/06/28 03:41:02;;;;;;;8.17;7.37;;;22.10;99.90;;;;;;5056863;28;20466;-46
2022/06/28 03:43:29;;;;;;;9.03;7.27;;;22.20;99.90;;;;;;5056616;28;20438;-45
2022/06/28 03:45:57;;;;;;;8.50;7.70;;;22.20;99.90;;;;;;5055044;28;20501;-45
2022/06/28 03:48:38;;;;;;;8.33;7.40;;;22.20;99.90;;;;;;5054851;28;20551;-45
2022/06/28 03:51:26;;;;;;;8.40;7.70;;;22.20;99.90;;;;;;5055327;28;20541;-45
2022/06/28 03:54:13;;;;;;;6.47;5.87;;;22.20;99.90;;;;;;5055062;28;20449;-45
2022/06/28 03:56:46;;;;;;;9.53;8.63;;;22.10;99.90;;;;;;5055466;28;20452;-47
2022/06/28 03:59:13;;;;;;;6.80;6.20;;;22.10;99.90;;;;;;5054699;28;21065;-45
2022/06/28 04:01:40;;;;;;;5.80;5.30;;;22.20;99.90;;;;;;5073469;28;20470;-47
2022/06/28 04:04:08;;;;;;;6.03;5.53;;;22.10;99.90;;;;;;5072955;28;20463;-47
2022/06/28 04:06:38;;;;;;;6.10;5.60;;;22.20;99.90;;;;;;5054690;28;20485;-47
2022/06/28 04:09:05;;;;;;;6.47;5.87;;;22.10;99.90;;;;;;5054390;28;20481;-46
2022/06/28 04:11:32;;;;;;;5.40;4.90;;;22.10;99.90;;;;;;5055087;28;20541;-45
2022/06/28 04:13:58;;;;;;;6.93;6.03;;;22.30;99.90;;;;;;5055001;28;20515;-47
2022/06/28 04:16:25;;;;;;;7.13;6.50;;;22.10;99.90;;;;;;5055086;28;20835;-46
2022/06/28 04:18:56;;;;;;;6.93;6.20;;;22.10;99.90;;;;;;5054094;28;20477;-48
2022/06/28 04:21:28;;;;;;;6.50;5.80;;;22.10;99.90;;;;;;5055029;28;20828;-46
2022/06/28 04:24:04;;;;;;;5.70;5.20;;;22.10;99.90;;;;;;5054835;28;20456;-44
2022/06/28 04:26:31;;;;;;;5.80;5.30;;;22.00;99.90;;;;;;5054390;28;20481;-46
2022/06/28 04:28:59;;;;;;;5.93;5.23;;;21.90;99.90;;;;;;5054595;28;20525;-47
2022/06/28 04:31:27;;;;;;;5.77;5.27;;;21.80;99.90;;;;;;5054622;28;20480;-47
2022/06/28 04:33:54;;;;;;;5.80;5.30;;;22.00;99.90;;;;;;5054313;28;20457;-45
2022/06/28 04:36:26;;;;;;;6.73;6.13;;;22.00;99.90;;;;;;5054656;28;20461;-46
2022/06/28 04:38:55;;;;;;;5.87;5.37;;;21.90;99.90;;;;;;5053890;28;20528;-46
2022/06/28 04:41:25;;;;;;;5.33;4.83;;;21.80;99.90;;;;;;5054057;28;20480;-47
2022/06/28 04:44:09;;;;;;;6.00;5.43;;;21.80;99.90;;;;;;5053827;28;20837;-47
2022/06/28 04:46:41;;;;;;;6.13;5.43;;;21.80;99.90;;;;;;5053762;28;20480;-47
2022/06/28 04:49:15;;;;;;;6.23;5.63;;;21.50;99.90;;;;;;5053052;28;20538;-46
2022/06/28 04:51:45;;;;;;;8.43;5.83;;;21.60;99.90;;;;;;5053660;28;20514;-45
2022/06/28 04:54:19;;;;;;;7.80;5.50;;;21.60;99.90;;;;;;5053551;28;20449;-46
2022/06/28 04:57:05;;;;;;;7.03;5.60;;;21.40;99.90;;;;;;5071761;28;20526;-46
2022/06/28 04:59:32;;;;;;;6.33;5.73;;;21.60;99.90;;;;;;5071191;28;20460;-47
2022/06/28 05:02:01;;;;;;;5.43;4.93;;;21.50;99.90;;;;;;5053183;28;20548;-45
2022/06/28 05:04:27;;;;;;;5.43;4.90;;;21.50;99.90;;;;;;5053248;28;20446;-46
2022/06/28 05:07:01;;;;;;;6.73;6.03;;;21.60;99.90;;;;;;5053134;28;20488;-46
2022/06/28 05:09:30;;;;;;;5.47;4.57;;;21.30;99.90;;;;;;5052807;28;21051;-45
2022/06/28 05:11:57;;;;;;;5.67;5.20;;;21.40;99.90;;;;;;5053064;28;20451;-45
2022/06/28 05:14:30;;;;;;;7.23;5.40;;;21.50;99.90;;;;;;5053133;28;20492;-46
2022/06/28 05:16:57;;;;;;;6.43;5.80;;;21.50;99.90;;;;;;5053050;28;20442;-45
2022/06/28 05:19:24;;;;;;;5.90;5.40;;;21.50;99.90;;;;;;5052434;28;20463;-45
2022/06/28 05:21:52;;;;;;;6.73;5.30;;;21.50;99.90;;;;;;5052555;28;20457;-46
2022/06/28 05:24:19;;;;;;;6.40;5.70;;;21.50;99.90;;;;;;5052630;28;20456;-46
2022/06/28 05:26:54;;;;;;;6.13;5.47;;;21.40;99.90;;;;;;5052750;28;20482;-46
2022/06/28 05:29:21;;;;;;;5.90;5.40;;;21.40;99.90;;;;;;5051577;28;20994;-46
2022/06/28 05:31:48;;;;;;;5.43;4.93;;;21.30;99.90;;;;;;5070421;28;20975;-46
2022/06/28 05:34:14;;;;;;;6.30;5.70;;;21.30;99.90;;;;;;5070709;28;20432;-48
2022/06/28 05:36:41;;;;;;;7.37;5.87;;;20.70;99.90;;;;;;5070725;28;20428;-47
2022/06/28 05:39:10;;;;;;;5.40;4.93;;;21.30;99.90;;;;;;5051809;28;20480;-45
2022/06/28 05:41:37;;;;;;;5.80;5.30;;;21.20;99.90;;;;;;5052568;28;20535;-46
2022/06/28 05:44:05;;;;;;;5.00;4.53;;;21.30;99.90;;;;;;5052092;28;20455;-45
2022/06/28 05:46:32;;;;;;;6.10;4.87;;;20.90;99.90;;;;;;5052065;28;20798;-47
2022/06/28 05:48:59;;;;;;;5.07;4.67;;;21.30;99.90;;;;;;5069701;28;20494;-47
2022/06/28 05:51:26;;;;;;;4.50;4.13;;;20.80;99.90;;;;;;5052338;28;20531;-47
2022/06/28 05:53:53;;;;;;;4.77;4.37;;;20.80;99.90;;;;;;5070118;28;20430;-46
2022/06/28 05:56:20;;;;;;;4.80;4.10;;;20.90;99.90;;;;;;5052387;28;20985;-46
2022/06/28 05:58:47;;;;;;;4.27;3.87;;;21.00;99.90;;;;;;5051631;28;20470;-46
2022/06/28 06:01:15;;;;;;;4.50;4.10;;;20.90;99.90;;;;;;5052263;28;20494;-46
2022/06/28 06:03:41;;;;;;;4.60;4.20;;;20.90;99.90;;;;;;5052065;28;20546;-48
2022/06/28 06:06:08;;;;;;;5.43;4.03;;;20.90;99.90;;;;;;5069946;28;20441;-46
2022/06/28 06:08:35;;;;;;;4.57;4.00;;;20.60;99.90;;;;;;5050947;28;20511;-46
2022/06/28 06:11:03;;;;;;;5.40;3.80;;;20.80;99.90;;;;;;5051545;28;20536;-46
2022/06/28 06:13:29;;;;;;;3.80;3.50;;;20.60;99.90;;;;;;5051348;28;20459;-46
2022/06/28 06:15:56;;;;;;;4.50;4.00;;;20.80;99.90;;;;;;5052013;28;20458;-47
2022/06/28 06:18:24;;;;;;;4.37;4.00;;;21.20;99.90;;;;;;5069741;28;20844;-48
2022/06/28 06:20:52;;;;;;;6.67;3.80;;;21.00;99.90;;;;;;5052203;28;20525;-47
2022/06/28 06:23:19;;;;;;;3.93;3.50;;;21.10;99.90;;;;;;5052146;28;20513;-46
2022/06/28 06:25:54;;;;;;;4.73;3.80;;;21.20;99.90;;;;;;5069637;28;20440;-46
2022/06/28 06:28:21;;;;;;;6.73;4.60;;;21.20;99.90;;;;;;5051296;28;20646;-46
2022/06/28 06:30:48;;;;;;;11.47;5.80;;;21.50;99.90;;;;;;5051775;28;20917;-47
2022/06/28 06:33:22;;;;;;;13.03;4.00;;;21.40;99.90;;;;;;5051812;28;20450;-47
2022/06/28 06:36:04;;;;;;;4.90;3.77;;;21.10;99.90;;;;;;5051732;28;20530;-47
2022/06/28 06:38:31;;;;;;;8.50;4.17;;;21.70;99.90;;;;;;5050870;28;20542;-46
2022/06/28 06:40:59;;;;;;;5.60;4.40;;;21.40;99.90;;;;;;5053400;28;20873;-47
2022/06/28 06:43:27;;;;;;;5.20;3.97;;;21.10;99.90;;;;;;5055570;28;20455;-47
2022/06/28 06:46:03;;;;;;;6.10;4.20;;;21.60;99.90;;;;;;5055412;28;20468;-47
2022/06/28 06:48:30;;;;;;;4.17;3.77;;;21.50;99.90;;;;;;5077725;22;20565;-53
2022/06/28 06:50:57;;;;;;;4.37;3.97;;;21.50;99.90;;;;;;5056629;28;20876;-59
2022/06/28 06:53:25;;;;;;;3.87;3.40;;;21.80;99.90;;;;;;5055589;28;20448;-53
2022/06/28 06:55:52;;;;;;;7.03;3.37;;;21.90;99.90;;;;;;5055881;28;20510;-53
2022/06/28 06:58:18;;;;;;;4.20;3.60;;;21.90;99.60;;;;;;5075186;28;20425;-53
2022/06/28 07:00:45;;;;;;;3.33;3.03;;;22.10;99.20;;;;;;5075995;28;20790;-54
2022/06/28 07:03:12;;;;;;;5.77;4.47;;;21.70;98.80;;;;;;5075941;28;20978;-54
2022/06/28 07:05:41;;;;;;;3.80;3.50;;;22.30;99.00;;;;;;5076537;28;20459;-54
2022/06/28 07:08:08;;;;;;;4.00;3.60;;;22.40;98.60;;;;;;5094278;28;20480;-54
2022/06/28 07:10:43;;;;;;;4.53;3.43;;;22.50;98.30;;;;;;5075868;28;20829;-54
2022/06/28 07:13:10;;;;;;;3.97;3.27;;;22.70;98.30;;;;;;5076486;28;20499;-54
2022/06/28 07:15:37;;;;;;;3.43;3.13;;;22.80;97.80;;;;;;5076106;28;20549;-53
2022/06/28 07:18:04;;;;;;;3.20;2.90;;;22.90;97.50;;;;;;5076157;28;20530;-53
2022/06/28 07:20:30;;;;;;;3.20;2.70;;;22.80;96.90;;;;;;5075783;28;20520;-54
2022/06/28 07:22:57;;;;;;;4.97;3.43;;;22.70;96.80;;;;;;5075775;28;20452;-53
2022/06/28 07:25:26;;;;;;;4.07;2.70;;;22.60;96.80;;;;;;5075886;28;21045;-53
2022/06/28 07:27:54;;;;;;;4.87;2.67;;;22.80;96.80;;;;;;5094287;28;20478;-53
2022/06/28 07:30:21;;;;;;;3.70;2.50;;;22.90;96.60;;;;;;5075768;28;20471;-53
2022/06/28 07:32:47;;;;;;;3.90;2.43;;;23.00;96.50;;;;;;5075865;28;20509;-54
2022/06/28 07:35:14;;;;;;;2.50;2.03;;;23.10;96.10;;;;;;5075993;28;20454;-54
2022/06/28 07:37:41;;;;;;;3.80;2.03;;;23.20;96.00;;;;;;5075806;28;20438;-52
2022/06/28 07:40:09;;;;;;;6.40;3.80;;;23.10;95.90;;;;;;5075247;28;20482;-54
2022/06/28 07:42:55;;;;;;;3.90;2.67;;;23.40;95.80;;;;;;5094120;28;20580;-53
2022/06/28 07:45:44;;;;;;;3.23;2.63;;;23.40;95.40;;;;;;5075493;28;20486;-52
2022/06/28 07:48:14;;;;;;;3.37;2.03;;;23.40;95.00;;;;;;5075282;28;20574;-53
2022/06/28 07:53:25;;;;;;;3.47;2.20;;;23.40;95.10;;;;;;5074461;28;20815;-53
2022/06/28 07:56:10;;;;;;;2.97;2.47;;;23.40;94.90;;;;;;5075704;28;20818;-53
2022/06/28 07:58:40;;;;;;;2.73;2.47;;;23.30;94.40;;;;;;5074969;28;20477;-53
2022/06/28 08:01:11;;;;;;;2.87;2.47;;;23.40;94.40;;;;;;5075107;28;20441;-53
2022/06/28 08:03:38;;;;;;;3.70;2.30;;;23.40;94.20;;;;;;5075432;28;20906;-52
2022/06/28 08:06:05;;;;;;;5.53;2.13;;;23.40;94.00;;;;;;5075007;28;20443;-53
2022/06/28 08:08:42;;;;;;;5.53;2.10;;;23.50;93.80;;;;;;5074688;28;20558;-52
2022/06/28 08:11:09;;;;;;;9.40;2.13;;;23.60;93.70;;;;;;5075294;28;20450;-53
2022/06/28 08:13:37;;;;;;;3.80;2.73;;;23.60;93.60;;;;;;5074845;28;20736;-52
2022/06/28 08:16:05;;;;;;;3.03;1.90;;;23.60;93.60;;;;;;5075115;28;20456;-52
2022/06/28 08:18:32;;;;;;;3.97;2.10;;;23.70;93.50;;;;;;5074437;28;20540;-52
2022/06/28 08:20:59;;;;;;;3.00;2.10;;;23.70;93.50;;;;;;5075373;28;21029;-52
2022/06/28 08:23:33;;;;;;;3.20;1.77;;;23.80;93.30;;;;;;5075042;28;20451;-53
2022/06/28 08:26:00;;;;;;;3.20;2.10;;;23.80;93.20;;;;;;5075039;28;20439;-54
2022/06/28 08:28:26;;;;;;;2.03;1.60;;;23.70;93.00;;;;;;5074231;28;20845;-52
2022/06/28 08:30:53;;;;;;;3.23;1.77;;;23.90;93.30;;;;;;5075011;28;20451;-53
2022/06/28 08:33:22;;;;;;;3.53;1.80;;;23.90;92.90;;;;;;5092810;28;20444;-53
2022/06/28 08:35:48;;;;;;;2.43;2.10;;;23.90;92.60;;;;;;5074588;28;20448;-52
2022/06/28 08:38:15;;;;;;;2.83;1.73;;;23.80;92.60;;;;;;5092369;28;20446;-53
2022/06/28 08:40:43;;;;;;;2.30;1.17;;;23.70;92.50;;;;;;5092329;28;20442;-54
2022/06/28 08:43:10;;;;;;;1.70;1.30;;;23.70;92.10;;;;;;5074872;28;20492;-53
2022/06/28 08:45:37;;;;;;;2.10;1.20;;;23.50;91.60;;;;;;5092873;28;20841;-53
2022/06/28 08:48:13;;;;;;;2.23;1.53;;;23.60;91.70;;;;;;5092480;28;20578;-52
2022/06/28 08:50:42;;;;;;;2.97;1.70;;;23.60;91.80;;;;;;5092653;28;20451;-52
2022/06/28 08:53:10;;;;;;;2.70;1.27;;;23.90;91.70;;;;;;5092950;28;20910;-53
2022/06/28 08:55:38;;;;;;;4.13;1.40;;;23.90;91.10;;;;;;5092372;28;20447;-53
2022/06/28 08:58:07;;;;;;;4.03;1.80;;;23.90;90.90;;;;;;5074349;28;20465;-54
2022/06/28 09:00:34;;;;;;;2.30;1.10;;;24.00;90.80;;;;;;5092738;28;20497;-54
2022/06/28 09:03:01;;;;;;;7.93;1.17;;;24.00;90.70;;;;;;5074116;28;20452;-54
2022/06/28 09:05:29;;;;;;;3.23;1.47;;;24.10;90.50;;;;;;5092411;28;20446;-53
2022/06/28 09:07:57;;;;;;;3.37;1.20;;;24.20;90.20;;;;;;5092790;28;21150;-52
2022/06/28 09:10:24;;;;;;;2.97;1.47;;;24.20;89.90;;;;;;5092187;28;20448;-53
2022/06/28 09:13:04;;;;;;;1.87;1.20;;;24.30;89.80;;;;;;5092744;28;20441;-53
2022/06/28 09:15:46;;;;;;;2.20;1.30;;;24.20;89.60;;;;;;5073767;28;20990;-52
2022/06/28 09:18:12;;;;;;;1.90;1.30;;;24.30;89.40;;;;;;5092079;28;20432;-52
2022/06/28 09:20:39;;;;;;;1.70;1.07;;;24.30;89.00;;;;;;5074120;28;20546;-53
2022/06/28 09:23:21;;;;;;;2.80;1.30;;;24.20;88.40;;;;;;5092754;28;20441;-54
2022/06/28 09:25:48;;;;;;;3.90;1.40;;;24.40;87.90;;;;;;5092927;28;20471;-53
2022/06/28 09:28:25;;;;;;;2.37;1.47;;;24.50;88.30;;;;;;5092634;28;20504;-53
2022/06/28 09:30:52;;;;;;;2.90;1.13;;;24.70;87.60;;;;;;5092677;28;20432;-54
2022/06/28 09:33:28;;;;;;;2.60;1.53;;;24.70;87.30;;;;;;5092394;28;20925;-53
2022/06/28 09:35:56;;;;;;;1.70;1.10;;;24.70;86.20;;;;;;5091925;28;20436;-52
2022/06/28 09:38:32;;;;;;;3.20;1.17;;;24.70;86.60;;;;;;5091873;28;20440;-52
2022/06/28 09:40:59;;;;;;;5.43;1.30;;;24.70;86.40;;;;;;5091946;28;20438;-53
2022/06/28 09:43:31;;;;;;;3.30;1.80;;;24.70;86.80;;;;;;5092139;28;20440;-53
2022/06/28 09:45:58;;;;;;;1.60;1.00;;;24.50;87.20;;;;;;5091686;28;20460;-53
2022/06/28 09:48:25;;;;;;;2.00;1.30;;;24.70;86.20;;;;;;5091393;28;20831;-53
2022/06/28 09:50:58;;;;;;;2.93;1.23;;;24.80;85.70;;;;;;5091769;28;20436;-53
2022/06/28 09:53:28;;;;;;;2.20;1.30;;;24.90;85.10;;;;;;5091599;28;20441;-53
2022/06/28 09:55:59;;;;;;;2.33;1.60;;;25.00;85.20;;;;;;5091531;28;20949;-53
2022/06/28 09:58:27;;;;;;;2.27;0.90;;;25.10;84.50;;;;;;5090904;28;20440;-53
2022/06/28 10:00:55;;;;;;;2.10;1.40;;;25.10;84.10;;;;;;5091613;28;20454;-53
2022/06/28 10:03:21;;;;;;;2.70;1.10;;;25.10;83.80;;;;;;5091111;28;20435;-53
2022/06/28 10:05:48;;;;;;;3.50;1.50;;;25.20;84.20;;;;;;5091059;28;20425;-53
2022/06/28 10:08:15;;;;;;;2.00;1.30;;;25.30;83.20;;;;;;5072917;28;20572;-53
2022/06/28 10:10:42;;;;;;;1.70;1.03;;;25.30;82.80;;;;;;5091117;28;20429;-53
2022/06/28 10:16:08;;;;;;;4.90;1.30;;;25.40;82.70;;;;;;5072576;28;20444;-53
2022/06/28 10:18:36;;;;;;;5.37;1.70;;;25.40;82.00;;;;;;5090981;28;20445;-53
2022/06/28 10:21:03;;;;;;;2.93;1.87;;;25.80;82.30;;;;;;5091377;28;20516;-53
2022/06/28 10:23:37;;;;;;;1.63;1.03;;;25.40;81.10;;;;;;5072626;28;20892;-53
2022/06/28 10:26:07;;;;;;;2.43;1.37;;;25.40;80.40;;;;;;5072847;28;20448;-53
2022/06/28 10:28:38;;;;;;;2.43;1.13;;;25.50;80.50;;;;;;5089879;28;20484;-53
2022/06/28 10:31:37;;;;;;;1.87;1.20;;;25.50;79.80;;;;;;5091096;28;20440;-52
2022/06/28 10:34:09;;;;;;;1.70;1.20;;;25.40;79.20;;;;;;5090752;28;20460;-53
2022/06/28 10:36:44;;;;;;;2.10;1.40;;;25.30;79.80;;;;;;5090568;28;20975;-53
2022/06/28 10:39:17;;;;;;;1.80;1.20;;;25.40;79.50;;;;;;5090867;28;20448;-53
2022/06/28 10:41:45;;;;;;;2.97;1.47;;;25.40;79.70;;;;;;5090872;28;20890;-53
2022/06/28 10:44:15;;;;;;;2.53;1.53;;;25.40;79.60;;;;;;5091326;28;20806;-52
2022/06/28 10:46:43;;;;;;;1.60;1.00;;;25.50;79.80;;;;;;5090960;28;20519;-53
2022/06/28 10:49:12;;;;;;;2.50;1.17;;;25.50;79.20;;;;;;5090472;28;20488;-52
2022/06/28 10:51:58;;;;;;;1.80;1.20;;;25.60;77.80;;;;;;5072607;28;20452;-53
2022/06/28 10:54:25;;;;;;;1.90;0.97;;;25.70;77.40;;;;;;5072448;28;20544;-53
2022/06/28 10:56:52;;;;;;;3.17;1.10;;;25.80;76.60;;;;;;5090764;28;20444;-53
2022/06/28 10:59:33;;;;;;;1.53;1.00;;;25.90;76.20;;;;;;5071696;28;20530;-53
2022/06/28 11:02:00;;;;;;;1.60;1.03;;;26.00;75.80;;;;;;5090676;28;20719;-54
2022/06/28 11:04:30;;;;;;;1.80;1.30;;;26.10;76.50;;;;;;5090989;28;20791;-53
2022/06/28 11:07:05;;;;;;;2.23;1.60;;;26.20;75.30;;;;;;5091195;28;20435;-53
2022/06/28 11:09:46;;;;;;;2.70;1.10;;;26.10;74.40;;;;;;5072556;28;20488;-53
2022/06/28 11:12:16;;;;;;;2.90;0.93;;;26.20;73.60;;;;;;5073087;28;20728;-53
2022/06/28 11:14:50;;;;;;;2.40;1.00;;;26.20;73.50;;;;;;5091188;28;20435;-53
2022/06/28 11:17:24;;;;;;;1.60;1.10;;;26.20;73.40;;;;;;5091208;28;20439;-53
2022/06/28 11:19:54;;;;;;;2.57;1.20;;;26.10;73.50;;;;;;5090096;28;20452;-53
2022/06/28 11:22:26;;;;;;;7.87;2.43;;;26.00;73.90;;;;;;5071781;28;20448;-53
2022/06/28 11:24:54;;;;;;;4.53;0.90;;;25.80;73.50;;;;;;5072196;28;20452;-53
2022/06/28 11:27:21;;;;;;;2.20;0.77;;;25.70;74.10;;;;;;5091775;28;20519;-53
2022/06/28 11:29:55;;;;;;;1.57;1.07;;;25.60;73.70;;;;;;5075115;28;20944;-53
2022/06/28 11:32:26;;;;;;;2.40;0.97;;;25.60;73.60;;;;;;5094418;28;20481;-53
2022/06/28 11:34:59;;;;;;;2.40;0.80;;;25.50;73.60;;;;;;5094506;28;20433;-53
2022/06/28 11:37:27;;;;;;;1.97;0.97;;;25.50;72.70;;;;;;5094272;28;20428;-53
2022/06/28 11:39:59;;;;;;;1.57;0.80;;;25.40;73.30;;;;;;5093123;28;20456;-52
2022/06/28 11:42:27;;;;;;;1.97;0.90;;;25.40;73.10;;;;;;5074920;28;20841;-53
2022/06/28 11:44:56;;;;;;;2.97;0.70;;;25.40;73.00;;;;;;5094207;28;20433;-52
2022/06/28 11:47:23;;;;;;;2.27;1.20;;;25.40;72.00;;;;;;5075013;28;20437;-53
2022/06/28 11:50:09;;;;;;;1.30;0.83;;;25.30;72.20;;;;;;5092456;28;20977;-52
2022/06/28 11:52:37;;;;;;;2.80;1.00;;;25.30;72.10;;;;;;5093595;28;20432;-53
2022/06/28 11:55:04;;;;;;;2.37;1.73;;;25.40;71.40;;;;;;5093638;28;20435;-53
2022/06/28 11:57:31;;;;;;;1.50;0.87;;;25.50;70.80;;;;;;5094079;28;20424;-53
2022/06/28 12:00:03;;;;;;;1.47;0.80;;;25.50;70.90;;;;;;5093501;28;20468;-53
2022/06/28 12:02:44;;;;;;;2.20;0.97;;;25.60;70.70;;;;;;5093827;28;20429;-53
2022/06/28 12:05:12;;;;;;;6.10;1.47;;;25.60;69.90;;;;;;5094063;28;20503;-52
2022/06/28 12:07:40;;;;;;;3.93;1.07;;;25.50;70.00;;;;;;5093789;28;20429;-53
2022/06/28 12:10:19;;;;;;;1.47;0.83;;;25.60;69.80;;;;;;5093147;28;20945;-53
2022/06/28 12:12:45;;;;;;;1.50;0.90;;;25.70;69.50;;;;;;5093983;28;20627;-52
2022/06/28 12:15:13;;;;;;;1.77;1.10;;;25.70;69.00;;;;;;5093489;28;20436;-52
2022/06/28 12:17:45;;;;;;;2.83;1.10;;;25.60;69.00;;;;;;5093289;28;20427;-52
2022/06/28 12:20:13;;;;;;;1.83;0.83;;;25.70;68.50;;;;;;5093005;28;20503;-53
2022/06/28 12:22:39;;;;;;;1.70;1.00;;;25.80;67.60;;;;;;5093391;28;20425;-53
2022/06/28 12:25:09;;;;;;;1.60;0.83;;;26.00;66.80;;;;;;5074846;28;20532;-54
2022/06/28 12:27:36;;;;;;;3.23;1.07;;;26.10;65.80;;;;;;5093679;28;20437;-52
2022/06/28 12:30:05;;;;;;;1.70;1.00;;;26.10;65.50;;;;;;5092993;28;20480;-52
2022/06/28 12:32:33;;;;;;;3.00;0.90;;;25.80;65.00;;;;;;5093012;28;20429;-52
2022/06/28 12:35:02;;;;;;;2.13;1.10;;;26.40;65.70;;;;;;5092402;28;20432;-52
2022/06/28 12:37:29;;;;;;;1.60;1.10;;;26.50;64.40;;;;;;5093020;28;20474;-53
2022/06/28 12:39:56;;;;;;;2.67;1.40;;;26.50;63.20;;;;;;5073779;28;20469;-53
2022/06/28 12:42:23;;;;;;;1.30;0.90;;;26.50;61.90;;;;;;5092228;28;20429;-54
2022/06/28 12:44:50;;;;;;;2.23;1.10;;;26.90;61.50;;;;;;5092965;28;20509;-53
2022/06/28 12:47:17;;;;;;;3.30;1.50;;;27.00;61.40;;;;;;5092550;28;20785;-53
2022/06/28 12:49:45;;;;;;;1.60;1.07;;;27.20;61.00;;;;;;5074583;28;20515;-51
2022/06/28 12:52:11;;;;;;;1.47;1.00;;;27.10;60.50;;;;;;5092427;28;20433;-52
2022/06/28 12:54:38;;;;;;;3.73;1.00;;;27.20;60.30;;;;;;5074287;28;20445;-53
2022/06/28 12:57:05;;;;;;;1.70;1.07;;;27.00;59.80;;;;;;5092726;28;20433;-53
2022/06/28 12:59:32;;;;;;;2.97;1.50;;;27.30;59.60;;;;;;5092063;28;20452;-52
2022/06/28 13:01:59;;;;;;;3.27;1.17;;;27.30;59.60;;;;;;5091968;28;20534;-52
2022/06/28 13:04:26;;;;;;;1.77;1.10;;;27.40;59.50;;;;;;5092618;28;20933;-53
2022/06/28 13:06:54;;;;;;;6.07;1.50;;;27.50;58.80;;;;;;5092412;28;20431;-53
2022/06/28 13:09:21;;;;;;;1.33;1.00;;;27.50;58.60;;;;;;5092179;28;20476;-52